Time;durP1;ratioP1;P1;durP2;ratioP2;P2;SDS_P1;SDS_P2;PMS_P1;PMS_P2;Temp;Humidity;BMP_temperature;BMP_pressure;BME280_temperature;BME280_humidity;BME280_pressure;Samples;Min_cycle;Max_cycle;Signal;HPM_P1;HPM_P2
2023/06/10 00:04:53;;;;;;;9.50;5.30;;;;;;;19.44;63.08;96622.53;10486290;28;20056;-72
2023/06/10 00:10:12;;;;;;;12.38;5.32;;;;;;;19.43;63.17;96620.97;10500218;28;20052;-72
2023/06/10 00:15:31;;;;;;;10.10;4.82;;;;;;;19.43;62.98;96623.66;10486324;28;20407;-72
2023/06/10 00:20:52;;;;;;;8.90;4.97;;;;;;;19.42;63.00;96625.56;10500229;28;20045;-72
2023/06/10 00:26:12;;;;;;;9.70;4.97;;;;;;;19.44;63.04;96630.63;10500937;28;20036;-72
2023/06/10 00:31:32;;;;;;;8.13;5.07;;;;;;;19.42;63.19;96632.88;10485741;28;20055;-72
2023/06/10 00:36:52;;;;;;;10.30;5.47;;;;;;;19.42;62.87;96636.34;10482643;28;20045;-71
2023/06/10 00:42:11;;;;;;;8.60;4.82;;;;;;;19.42;62.95;96641.75;10513552;28;20052;-72
2023/06/10 00:47:31;;;;;;;8.57;4.82;;;;;;;19.42;62.93;96633.66;10470708;28;20424;-72
2023/06/10 00:52:51;;;;;;;10.60;5.18;;;;;;;19.42;62.92;96625.56;10499002;28;20049;-72
2023/06/10 00:58:11;;;;;;;11.02;5.53;;;;;;;19.41;62.93;96629.38;10499265;28;20047;-72
2023/06/10 01:03:32;;;;;;;8.80;5.00;;;;;;;19.41;63.01;96639.41;10484733;28;20109;-72
2023/06/10 01:09:00;;;;;;;8.13;4.93;;;;;;;19.41;62.81;96623.97;10498334;28;20041;-72
2023/06/10 01:14:20;;;;;;;11.55;5.60;;;;;;;19.41;62.93;96629.38;10470022;28;20502;-72
2023/06/10 01:19:40;;;;;;;8.43;4.90;;;;;;;19.41;62.89;96632.09;10483869;28;20542;-72
2023/06/10 01:25:00;;;;;;;9.70;4.88;;;;;;;19.41;62.88;96634.78;10483589;28;20043;-72
2023/06/10 01:30:29;;;;;;;7.82;4.63;;;;;;;19.41;62.77;96640.19;10497446;28;20037;-72
2023/06/10 01:35:50;;;;;;;8.32;5.10;;;;;;;19.40;62.84;96654.81;10483479;28;20048;-72
2023/06/10 01:41:11;;;;;;;8.38;4.43;;;;;;;19.41;62.88;96656.41;10497051;28;20481;-72
2023/06/10 01:46:31;;;;;;;8.85;5.15;;;;;;;19.41;62.87;96661.03;10482548;28;20052;-72
2023/06/10 01:51:51;;;;;;;7.95;4.35;;;;;;;19.41;62.77;96656.41;10496679;28;20048;-72
2023/06/10 01:57:10;;;;;;;7.97;4.25;;;;;;;19.39;62.76;96658.63;10510483;28;20440;-72
2023/06/10 02:02:30;;;;;;;7.95;4.60;;;;;;;19.40;62.69;96660.22;10468254;28;20079;-72
2023/06/10 02:07:50;;;;;;;8.25;4.18;;;;;;;19.40;62.58;96660.22;10496143;28;20044;-72
2023/06/10 02:13:10;;;;;;;6.80;4.18;;;;;;;19.39;62.80;96661.34;10496067;28;20123;-72
2023/06/10 02:18:29;;;;;;;8.00;4.70;;;;;;;19.40;62.66;96662.13;10495766;28;20471;-72
2023/06/10 02:23:48;;;;;;;7.60;4.32;;;;;;;19.39;62.79;96664.03;10510828;28;20059;-72
2023/06/10 02:29:08;;;;;;;8.27;4.60;;;;;;;19.40;62.62;96662.13;10496935;28;20047;-72
2023/06/10 02:34:27;;;;;;;6.85;4.07;;;;;;;19.39;62.64;96664.03;10495504;28;20048;-72
2023/06/10 02:39:48;;;;;;;7.97;4.55;;;;;;;19.38;62.71;96654.34;10495573;28;20052;-72
2023/06/10 02:45:08;;;;;;;7.38;4.20;;;;;;;19.39;62.57;96655.94;10495056;28;20045;-72
2023/06/10 02:50:33;;;;;;;6.13;4.13;;;;;;;19.39;62.67;96657.84;10481734;28;20040;-72
2023/06/10 02:56:04;;;;;;;7.13;4.00;;;;;;;19.38;62.63;96662.44;10468952;28;20098;-72
2023/06/10 03:01:24;;;;;;;6.93;4.38;;;;;;;19.38;62.54;96670.56;10492857;28;20451;-72
2023/06/10 03:06:52;;;;;;;5.93;3.87;;;;;;;19.38;62.60;96681.34;10483772;28;20075;-72
2023/06/10 03:12:18;;;;;;;6.18;3.70;;;;;;;19.37;62.49;96671.69;10489711;28;20041;-72
2023/06/10 03:17:40;;;;;;;6.78;4.00;;;;;;;19.38;62.60;96669.75;10488938;28;20036;-72
2023/06/10 03:23:00;;;;;;;6.47;3.58;;;;;;;19.37;62.64;96682.50;10488234;28;20408;-72
2023/06/10 03:28:21;;;;;;;5.07;3.63;;;;;;;19.38;62.46;96677.88;10516344;28;20067;-72
2023/06/10 03:33:41;;;;;;;5.18;3.95;;;;;;;19.37;62.48;96682.50;10502190;28;20044;-72
2023/06/10 03:39:01;;;;;;;5.68;3.85;;;;;;;19.36;62.43;96680.88;10473913;28;20436;-72
2023/06/10 03:44:22;;;;;;;5.78;3.88;;;;;;;19.36;62.42;96684.38;10516646;28;20048;-72
2023/06/10 03:49:41;;;;;;;7.72;4.35;;;;;;;19.36;62.36;96686.28;10501317;28;20048;-72
2023/06/10 03:55:02;;;;;;;6.03;3.72;;;;;;;19.37;62.42;96690.59;10487152;28;20519;-72
2023/06/10 04:00:22;;;;;;;5.93;3.80;;;;;;;19.37;62.45;96701.41;10516526;28;20045;-75
2023/06/10 04:05:41;;;;;;;8.63;4.28;;;;;;;19.37;62.43;96696.00;10486924;28;20393;-75
2023/06/10 04:11:02;;;;;;;5.38;3.55;;;;;;;19.36;62.36;96707.91;10500709;28;20053;-76
2023/06/10 04:16:21;;;;;;;5.60;3.67;;;;;;;19.35;62.42;96704.41;10500351;28;20091;-76
2023/06/10 04:21:42;;;;;;;6.97;3.72;;;;;;;19.36;62.34;96710.59;10471084;28;20051;-76
2023/06/10 04:27:03;;;;;;;5.03;3.20;;;;;;;19.36;62.35;96710.59;10500054;28;20503;-76
2023/06/10 04:32:23;;;;;;;4.78;3.50;;;;;;;19.35;62.26;96704.41;10499801;28;20115;-76
2023/06/10 04:37:43;;;;;;;4.70;3.25;;;;;;;19.35;62.35;96701.72;10499678;28;20044;-75
2023/06/10 04:43:04;;;;;;;5.95;3.47;;;;;;;19.35;62.42;96706.34;10513219;28;20052;-76
2023/06/10 04:48:25;;;;;;;5.63;3.35;;;;;;;19.34;62.29;96705.53;10499091;28;20036;-75
2023/06/10 04:53:46;;;;;;;4.65;3.17;;;;;;;19.34;62.22;96697.41;10485042;28;20044;-76
2023/06/10 04:59:06;;;;;;;4.32;3.35;;;;;;;19.35;62.26;96706.34;10498676;28;20047;-76
2023/06/10 05:04:25;;;;;;;3.88;3.05;;;;;;;19.35;62.19;96706.34;10503060;28;20053;-76
2023/06/10 05:09:45;;;;;;;4.18;3.22;;;;;;;19.35;62.12;96711.72;10498154;28;20037;-76
2023/06/10 05:15:06;;;;;;;6.38;3.42;;;;;;;19.35;62.33;96711.72;10498039;28;20040;-76
2023/06/10 05:20:26;;;;;;;5.05;2.97;;;;;;;19.35;62.26;96722.53;10497888;28;20051;-76
2023/06/10 05:25:46;;;;;;;4.85;3.35;;;;;;;19.33;62.08;96717.44;10497598;28;20401;-76
2023/06/10 05:31:05;;;;;;;5.25;3.65;;;;;;;19.34;62.27;96729.03;10497001;28;20061;-75
2023/06/10 05:36:26;;;;;;;5.68;3.28;;;;;;;19.34;62.17;96726.34;10497126;28;20126;-76
2023/06/10 05:41:45;;;;;;;5.60;3.45;;;;;;;19.34;62.07;96732.53;10483057;28;20063;-76
2023/06/10 05:47:05;;;;;;;4.45;3.30;;;;;;;19.35;62.06;96738.75;10496526;28;20443;-76
2023/06/10 05:52:25;;;;;;;4.70;2.83;;;;;;;19.34;62.05;96739.84;10496690;28;20040;-76
2023/06/10 05:57:45;;;;;;;5.38;3.30;;;;;;;19.35;62.06;96741.44;10497073;28;20041;-76
2023/06/10 06:03:08;;;;;;;4.13;2.95;;;;;;;19.34;61.87;96743.34;10487045;28;20158;-76
2023/06/10 06:08:29;;;;;;;3.95;2.85;;;;;;;19.34;62.06;96751.44;10482090;28;20173;-76
2023/06/10 06:13:49;;;;;;;4.38;3.10;;;;;;;19.35;62.06;96749.56;10511074;28;20048;-76
2023/06/10 06:19:11;;;;;;;4.00;2.95;;;;;;;19.34;61.91;96753.34;10496012;28;20416;-76
2023/06/10 06:24:30;;;;;;;5.10;3.13;;;;;;;19.34;62.02;96753.34;10510658;28;20041;-76
2023/06/10 06:29:50;;;;;;;5.65;3.22;;;;;;;19.34;62.03;96754.13;10495516;28;20052;-76
2023/06/10 06:35:10;;;;;;;3.90;2.85;;;;;;;19.34;62.07;96759.53;10481581;28;20120;-76
2023/06/10 06:40:30;;;;;;;4.93;3.20;;;;;;;19.35;62.10;96763.84;10495331;28;20399;-76
2023/06/10 06:45:49;;;;;;;4.13;3.03;;;;;;;19.36;62.04;96761.94;10518806;28;20049;-76
2023/06/10 06:51:09;;;;;;;4.10;2.90;;;;;;;19.35;62.06;96761.13;10503740;28;20052;-76
2023/06/10 06:56:28;;;;;;;5.18;3.40;;;;;;;19.34;62.06;96767.66;10503631;28;20098;-76
2023/06/10 07:01:48;;;;;;;4.45;2.90;;;;;;;19.35;62.20;96768.47;10515142;28;20052;-76
2023/06/10 07:07:08;;;;;;;4.05;2.65;;;;;;;19.35;62.12;96776.56;10502979;28;20044;-76
2023/06/10 07:12:28;;;;;;;3.60;2.90;;;;;;;19.35;62.00;96776.56;10503058;28;20044;-75
2023/06/10 07:17:47;;;;;;;3.67;2.80;;;;;;;19.34;62.12;96783.06;10488822;28;20047;-76
2023/06/10 07:23:06;;;;;;;4.05;3.00;;;;;;;19.34;62.08;96788.47;10502358;28;20120;-76
2023/06/10 07:28:26;;;;;;;3.75;2.60;;;;;;;19.35;62.22;96792.78;10474414;28;20036;-76
2023/06/10 07:33:46;;;;;;;4.35;3.08;;;;;;;19.34;62.17;96799.28;10502026;28;20048;-75
2023/06/10 07:39:06;;;;;;;3.72;2.88;;;;;;;19.34;61.98;96800.06;10487918;28;20041;-76
2023/06/10 07:44:26;;;;;;;3.60;2.50;;;;;;;19.34;62.01;96812.78;10501929;28;20037;-76
2023/06/10 07:49:46;;;;;;;3.72;2.60;;;;;;;19.36;62.11;96818.66;10501333;28;20044;-76
2023/06/10 07:55:05;;;;;;;3.85;2.75;;;;;;;19.34;62.00;96812.78;10487038;28;20389;-76
2023/06/10 08:00:25;;;;;;;4.28;2.70;;;;;;;19.35;62.16;96814.38;10487251;28;20036;-76
2023/06/10 08:05:45;;;;;;;5.82;2.75;;;;;;;19.34;62.13;96807.38;10445720;28;20066;-76
2023/06/10 08:11:05;;;;;;;3.92;2.80;;;;;;;19.35;61.98;96808.97;10459303;28;20044;-76
2023/06/10 08:16:24;;;;;;;3.58;2.90;;;;;;;19.34;62.07;96816.28;10445332;28;20055;-76
2023/06/10 08:21:44;;;;;;;3.58;2.70;;;;;;;19.34;61.98;96826.28;10458765;28;20099;-75
2023/06/10 08:27:04;;;;;;;3.67;2.60;;;;;;;19.34;62.05;96829.00;10444744;28;20497;-75
2023/06/10 08:32:23;;;;;;;4.47;2.78;;;;;;;19.34;62.05;96834.38;10444415;28;20045;-75
2023/06/10 08:37:42;;;;;;;3.47;2.72;;;;;;;19.34;62.16;96837.09;10458285;28;20485;-75
2023/06/10 08:43:07;;;;;;;3.42;2.50;;;;;;;19.34;62.00;96839.78;10473086;28;20083;-75
2023/06/10 08:48:29;;;;;;;3.47;2.35;;;;;;;19.34;62.06;96837.09;10457783;28;20041;-76
2023/06/10 08:53:54;;;;;;;3.45;2.50;;;;;;;19.35;62.13;96836.00;10443747;28;20098;-75
2023/06/10 08:59:13;;;;;;;4.00;2.70;;;;;;;19.33;62.00;96833.59;10457430;28;20041;-75
2023/06/10 09:04:33;;;;;;;3.85;2.50;;;;;;;19.35;62.14;96844.09;10477361;28;20102;-75
2023/06/10 09:09:53;;;;;;;4.05;2.75;;;;;;;19.34;61.98;96834.38;10498414;28;20044;-75
2023/06/10 09:15:14;;;;;;;3.15;2.45;;;;;;;19.34;61.77;96837.09;10470130;28;20401;-75
2023/06/10 09:20:34;;;;;;;3.42;2.58;;;;;;;19.32;61.77;96840.09;10498062;28;20042;-75
2023/06/10 09:26:00;;;;;;;3.13;2.45;;;;;;;19.31;61.68;96843.16;10512590;28;20074;-75
2023/06/10 09:31:21;;;;;;;3.15;2.60;;;;;;;19.32;61.80;96858.22;10498033;28;20047;-75
2023/06/10 09:36:41;;;;;;;3.85;3.20;;;;;;;19.31;61.75;96856.66;10512426;28;20041;-75
2023/06/10 09:42:01;;;;;;;2.97;2.30;;;;;;;19.31;61.77;96854.75;10469185;28;20048;-75
2023/06/10 09:47:22;;;;;;;3.15;2.40;;;;;;;19.30;61.64;96839.63;10482521;28;20044;-75
2023/06/10 09:52:42;;;;;;;2.80;2.42;;;;;;;19.30;61.63;96847.75;10497860;28;20504;-75
2023/06/10 09:58:01;;;;;;;3.20;2.50;;;;;;;19.30;61.45;96845.03;10496573;28;20044;-75
2023/06/10 10:03:24;;;;;;;2.78;2.55;;;;;;;19.30;61.44;96850.44;10488820;28;20064;-75
2023/06/10 10:08:45;;;;;;;3.03;2.45;;;;;;;19.30;61.52;96847.75;10495832;28;20040;-75
2023/06/10 10:14:05;;;;;;;3.17;2.53;;;;;;;19.29;61.64;96840.78;10468169;28;20551;-75
2023/06/10 10:19:29;;;;;;;2.47;2.25;;;;;;;19.29;61.74;96851.56;10495888;28;20044;-74
2023/06/10 10:24:51;;;;;;;2.95;2.60;;;;;;;19.30;61.48;96841.56;10495883;28;20037;-75
2023/06/10 10:30:11;;;;;;;2.45;2.15;;;;;;;19.31;61.49;96838.53;10481747;28;20484;-75
2023/06/10 10:35:33;;;;;;;3.15;2.40;;;;;;;19.30;61.54;96836.94;10495675;28;20443;-75
2023/06/10 10:40:52;;;;;;;3.80;2.50;;;;;;;19.30;61.72;96830.75;10481410;28;20044;-74
2023/06/10 10:46:14;;;;;;;3.17;2.58;;;;;;;19.30;61.60;96828.06;10495068;28;20067;-75
2023/06/10 10:51:35;;;;;;;3.17;2.30;;;;;;;19.30;61.57;96834.22;10481214;28;20127;-75
2023/06/10 10:57:11;;;;;;;3.15;2.05;;;;;;;19.30;61.64;96831.53;10453790;28;20043;-73
2023/06/10 11:02:40;;;;;;;2.90;2.42;;;;;;;19.30;61.53;96828.06;10505092;28;20082;-73
2023/06/10 11:08:00;;;;;;;2.90;2.30;;;;;;;19.29;61.54;96824.56;10481513;28;20481;-73
2023/06/10 11:13:20;;;;;;;2.80;2.45;;;;;;;19.30;61.59;96817.25;10494834;28;20048;-72
2023/06/10 11:18:41;;;;;;;2.47;2.28;;;;;;;19.30;61.75;96809.94;10480376;28;20036;-72
2023/06/10 11:24:11;;;;;;;2.47;2.28;;;;;;;19.29;61.76;96813.75;10494451;28;20182;-72
2023/06/10 11:29:31;;;;;;;3.42;2.60;;;;;;;19.30;61.76;96809.13;10484615;28;20045;-72
2023/06/10 11:34:53;;;;;;;2.30;2.00;;;;;;;19.30;61.58;96806.44;10501917;28;20477;-73
2023/06/10 11:40:13;;;;;;;2.70;2.35;;;;;;;19.31;61.71;96794.53;10501802;28;20044;-72
2023/06/10 11:45:32;;;;;;;2.50;2.30;;;;;;;19.30;61.73;96787.53;10501384;28;20507;-72
2023/06/10 11:50:52;;;;;;;2.50;2.30;;;;;;;19.29;61.61;96800.25;10516201;28;20223;-72
2023/06/10 11:56:12;;;;;;;4.15;2.55;;;;;;;19.31;61.78;96802.63;10487167;28;20049;-72
2023/06/10 12:01:33;;;;;;;3.28;2.60;;;;;;;19.30;61.78;96787.53;10484356;28;20053;-72
2023/06/10 12:06:53;;;;;;;3.67;2.72;;;;;;;19.30;61.91;96784.84;10500697;28;20047;-73
2023/06/10 12:12:13;;;;;;;2.55;2.35;;;;;;;19.30;61.90;96782.91;10500359;28;20044;-72
2023/06/10 12:17:33;;;;;;;2.45;2.22;;;;;;;19.30;61.91;96779.44;10500273;28;20037;-72
2023/06/10 12:22:53;;;;;;;2.50;2.30;;;;;;;19.30;61.80;96795.63;10514711;28;20048;-73
2023/06/10 12:28:13;;;;;;;2.90;2.28;;;;;;;19.30;61.91;96782.91;10499824;28;20044;-72
2023/06/10 12:33:32;;;;;;;2.47;2.10;;;;;;;19.31;61.88;96778.31;10485538;28;20052;-73
2023/06/10 12:38:53;;;;;;;2.70;2.00;;;;;;;19.30;61.78;96772.13;10498315;28;20041;-72
2023/06/10 12:44:12;;;;;;;2.83;2.40;;;;;;;19.30;61.97;96768.63;10513239;28;20044;-72
2023/06/10 12:49:32;;;;;;;2.60;2.22;;;;;;;19.30;61.85;96760.53;10484649;28;20048;-72
2023/06/10 12:54:52;;;;;;;2.45;2.17;;;;;;;19.31;61.91;96759.41;10498806;28;20059;-72
2023/06/10 13:00:13;;;;;;;2.97;2.35;;;;;;;19.31;61.97;96754.03;10498934;28;20037;-72
2023/06/10 13:05:35;;;;;;;2.50;2.30;;;;;;;19.31;61.96;96759.41;10470659;28;20060;-72
2023/06/10 13:10:54;;;;;;;2.47;2.08;;;;;;;19.31;62.07;96764.81;10512266;28;20040;-72
2023/06/10 13:16:14;;;;;;;2.38;2.17;;;;;;;19.30;61.98;96753.19;10483996;28;20048;-72
2023/06/10 13:21:34;;;;;;;2.42;2.22;;;;;;;19.31;62.12;96751.31;10497746;28;20051;-72
2023/06/10 13:26:56;;;;;;;5.18;2.40;;;;;;;19.31;62.03;96737.81;10484417;28;20049;-72
2023/06/10 13:32:16;;;;;;;2.50;2.25;;;;;;;19.30;62.02;96738.91;10483463;28;20044;-73
2023/06/10 13:37:35;;;;;;;2.60;2.30;;;;;;;19.32;62.00;96739.38;10497118;28;20040;-72
2023/06/10 13:42:55;;;;;;;2.33;2.10;;;;;;;19.32;62.12;96731.28;10482854;28;20502;-72
2023/06/10 13:48:14;;;;;;;2.60;2.22;;;;;;;19.32;62.44;96744.78;10496515;28;20045;-73
2023/06/10 13:53:34;;;;;;;2.58;2.17;;;;;;;19.32;62.51;96740.16;10482156;28;20120;-73
2023/06/10 13:58:54;;;;;;;2.55;2.25;;;;;;;19.32;62.46;96740.16;10496259;28;20489;-73
2023/06/10 14:04:14;;;;;;;2.83;1.98;;;;;;;19.32;62.57;96745.56;10501132;28;20060;-73
2023/06/10 14:09:33;;;;;;;3.75;2.90;;;;;;;19.33;62.74;96739.06;10482059;28;20476;-73
2023/06/10 14:14:53;;;;;;;4.22;3.40;;;;;;;19.33;62.84;96740.97;10495691;28;20042;-72
2023/06/10 14:20:13;;;;;;;3.85;3.45;;;;;;;19.33;62.76;96746.38;10495518;28;20046;-72
2023/06/10 14:25:33;;;;;;;5.40;4.88;;;;;;;19.33;62.84;96751.78;10495641;28;20051;-73
2023/06/10 14:30:53;;;;;;;7.20;5.80;;;;;;;19.33;63.01;96749.88;10495512;28;20086;-72
2023/06/10 14:36:13;;;;;;;7.47;5.97;;;;;;;19.33;62.78;96754.50;10467425;28;20129;-73
2023/06/10 14:41:32;;;;;;;6.30;5.18;;;;;;;19.34;63.50;96748.72;10509083;28;20047;-72
2023/06/10 14:46:52;;;;;;;6.78;5.10;;;;;;;19.34;63.59;96751.44;10494797;28;20059;-72
2023/06/10 14:52:11;;;;;;;8.32;5.20;;;;;;;19.34;63.90;96751.44;10494827;28;20048;-72
2023/06/10 14:57:31;;;;;;;6.20;5.15;;;;;;;19.35;64.04;96753.03;10494724;28;20071;-72
2023/06/10 15:02:51;;;;;;;7.05;5.75;;;;;;;19.36;64.23;96761.94;10476292;28;20052;-72
2023/06/10 15:08:11;;;;;;;6.22;5.15;;;;;;;19.35;64.32;96760.34;10502876;28;20040;-72
2023/06/10 15:13:31;;;;;;;5.97;5.38;;;;;;;19.35;64.04;96763.06;10502740;28;20059;-72
2023/06/10 15:18:50;;;;;;;6.38;5.00;;;;;;;19.35;64.28;96760.34;10502393;28;20086;-72
2023/06/10 15:24:10;;;;;;;6.95;5.72;;;;;;;19.36;64.31;96759.22;10516565;28;20454;-72
2023/06/10 15:29:29;;;;;;;6.85;6.15;;;;;;;19.38;65.32;96753.50;10488095;28;20036;-72
2023/06/10 15:34:50;;;;;;;6.68;5.63;;;;;;;19.39;65.99;96755.88;10501872;28;20052;-72
2023/06/10 15:40:11;;;;;;;6.50;5.43;;;;;;;19.40;66.31;96738.53;10487845;28;20059;-72
2023/06/10 15:45:31;;;;;;;7.68;5.25;;;;;;;19.41;66.73;96745.56;10501443;28;20045;-71
2023/06/10 15:50:50;;;;;;;6.00;5.40;;;;;;;19.41;66.59;96739.38;10501234;28;20040;-72
2023/06/10 15:56:10;;;;;;;6.20;4.80;;;;;;;19.41;66.42;96750.94;10501115;28;20041;-71
2023/06/10 16:01:29;;;;;;;5.07;4.68;;;;;;;19.42;66.33;96751.75;10484435;28;20059;-72
2023/06/10 16:06:49;;;;;;;6.50;5.35;;;;;;;19.42;66.08;96751.75;10486675;28;20047;-72
2023/06/10 16:12:10;;;;;;;5.15;4.65;;;;;;;19.42;65.70;96755.22;10500335;28;20048;-72
2023/06/10 16:17:30;;;;;;;8.55;4.80;;;;;;;19.42;65.61;96770.66;10500182;28;20041;-72
2023/06/10 16:22:50;;;;;;;5.40;4.78;;;;;;;19.43;65.02;96775.72;10485876;28;20046;-72
2023/06/10 16:28:09;;;;;;;5.55;4.90;;;;;;;19.43;65.21;96785.75;10499825;28;20043;-71
2023/06/10 16:33:29;;;;;;;5.38;4.80;;;;;;;19.43;65.08;96783.84;10499565;28;20055;-72
2023/06/10 16:38:50;;;;;;;5.25;4.75;;;;;;;19.44;64.94;96788.13;10499335;28;20044;-72
2023/06/10 16:44:10;;;;;;;6.15;4.90;;;;;;;19.43;64.80;96778.44;10514150;28;20090;-72
2023/06/10 16:49:29;;;;;;;5.25;4.72;;;;;;;19.44;64.88;96790.03;10457372;28;20113;-72
2023/06/10 16:54:49;;;;;;;7.53;5.25;;;;;;;19.44;64.74;96798.91;10457162;28;20482;-72
2023/06/10 17:00:10;;;;;;;6.93;5.05;;;;;;;19.44;64.52;96798.91;10443595;28;20097;-72
2023/06/10 17:05:29;;;;;;;6.85;5.10;;;;;;;19.44;64.62;96804.31;10429408;28;20049;-72
2023/06/10 17:10:49;;;;;;;8.05;5.43;;;;;;;19.45;64.55;96805.13;10456625;28;20041;-72
2023/06/10 17:16:08;;;;;;;6.53;5.30;;;;;;;19.43;64.51;96813.56;10470345;28;20052;-72
2023/06/10 17:21:28;;;;;;;7.28;5.28;;;;;;;19.44;64.43;96823.22;10456229;28;20044;-72
2023/06/10 17:26:48;;;;;;;6.78;5.20;;;;;;;19.44;64.27;96822.44;10455385;28;20041;-72
2023/06/10 17:32:08;;;;;;;8.50;5.45;;;;;;;19.44;64.34;96825.16;10455875;28;20095;-72
2023/06/10 17:37:28;;;;;;;8.32;5.38;;;;;;;19.43;64.23;96837.88;10441876;28;20067;-72
2023/06/10 17:42:47;;;;;;;8.55;5.35;;;;;;;19.43;64.06;96840.56;10455332;28;20041;-72
2023/06/10 17:48:06;;;;;;;9.23;5.68;;;;;;;19.43;64.06;96843.28;10482390;28;20044;-72
2023/06/10 17:53:26;;;;;;;7.82;5.47;;;;;;;19.43;64.11;96845.19;10482281;28;20041;-72
2023/06/10 17:58:45;;;;;;;9.15;5.85;;;;;;;19.45;64.07;96848.38;10482611;28;20139;-75
2023/06/10 18:04:05;;;;;;;8.88;5.80;;;;;;;19.44;63.99;96857.56;10498202;28;20131;-76
2023/06/10 18:09:25;;;;;;;9.23;5.93;;;;;;;19.43;64.06;96848.69;10468270;28;20443;-76
2023/06/10 18:14:44;;;;;;;8.60;5.43;;;;;;;19.43;63.92;96856.00;10481940;28;20451;-76
2023/06/10 18:20:04;;;;;;;8.40;5.82;;;;;;;19.43;63.89;96862.19;10481628;28;20041;-76
2023/06/10 18:25:24;;;;;;;6.97;5.38;;;;;;;19.44;63.85;96865.69;10495292;28;20037;-77
2023/06/10 18:30:44;;;;;;;7.72;5.70;;;;;;;19.43;63.94;96870.28;10495268;28;20048;-75
2023/06/10 18:36:03;;;;;;;6.72;5.60;;;;;;;19.43;63.82;96864.09;10494864;28;20489;-76
2023/06/10 18:41:23;;;;;;;7.63;6.15;;;;;;;19.42;63.65;96867.91;10480878;28;20051;-76
2023/06/10 18:46:42;;;;;;;7.15;5.82;;;;;;;19.44;63.66;96876.47;10495033;28;20036;-76
2023/06/10 18:52:02;;;;;;;7.03;6.20;;;;;;;19.42;63.62;96882.19;10481123;28;20102;-76
2023/06/10 18:57:21;;;;;;;7.25;5.60;;;;;;;19.43;63.57;96891.13;10495153;28;20447;-76
2023/06/10 19:02:41;;;;;;;6.20;5.60;;;;;;;19.41;63.44;96894.13;10481108;28;20064;-76
2023/06/10 19:08:02;;;;;;;6.88;5.78;;;;;;;19.41;63.54;96896.84;10510001;28;20553;-75
2023/06/10 19:13:22;;;;;;;8.50;5.72;;;;;;;19.41;63.26;96891.44;10494910;28;20056;-75
2023/06/10 19:18:42;;;;;;;7.38;6.05;;;;;;;19.40;63.27;96908.75;10480606;28;20046;-76
2023/06/10 19:24:03;;;;;;;7.57;6.10;;;;;;;19.42;63.07;96921.94;10467251;28;20044;-75
2023/06/10 19:29:22;;;;;;;6.22;5.43;;;;;;;19.40;62.88;96927.66;10494618;28;20040;-75
2023/06/10 19:34:41;;;;;;;6.22;5.50;;;;;;;19.38;62.70;96938.00;10480527;28;20049;-76
2023/06/10 19:40:01;;;;;;;6.75;6.05;;;;;;;19.35;62.56;96946.75;10480383;28;20071;-76
2023/06/10 19:45:21;;;;;;;6.78;5.85;;;;;;;19.33;62.37;96948.97;10480193;28;20128;-76
2023/06/10 19:50:40;;;;;;;8.32;6.05;;;;;;;19.30;62.17;96944.97;10498498;28;20476;-76
2023/06/10 19:56:00;;;;;;;6.57;5.85;;;;;;;19.28;62.05;96949.91;10516493;28;20044;-75
2023/06/10 20:01:20;;;;;;;10.63;6.43;;;;;;;19.29;61.98;96939.91;10485447;28;20382;-75
2023/06/10 20:06:40;;;;;;;8.70;6.75;;;;;;;19.31;61.98;96935.00;10501119;28;20052;-75
2023/06/10 20:11:59;;;;;;;7.93;7.18;;;;;;;19.31;61.98;96926.88;10500942;28;20400;-76
2023/06/10 20:17:19;;;;;;;7.63;6.45;;;;;;;19.30;61.89;96936.88;10500736;28;20059;-75
2023/06/10 20:22:39;;;;;;;7.00;6.40;;;;;;;19.31;61.94;96932.28;10500524;28;20041;-76
2023/06/10 20:27:59;;;;;;;7.43;6.72;;;;;;;19.31;61.96;96937.69;10515363;28;20127;-76
2023/06/10 20:33:19;;;;;;;6.70;6.10;;;;;;;19.31;61.93;96935.78;10500099;28;20508;-75
2023/06/10 20:38:39;;;;;;;6.70;6.05;;;;;;;19.32;62.00;96929.25;10515065;28;20040;-74
2023/06/10 20:43:59;;;;;;;6.43;5.75;;;;;;;19.32;62.22;96923.84;10499755;28;20040;-76
2023/06/10 20:49:19;;;;;;;6.57;5.90;;;;;;;19.33;62.21;96925.44;10514461;28;20137;-75
2023/06/10 20:54:39;;;;;;;6.75;6.05;;;;;;;19.33;62.44;96919.25;10499432;28;20041;-76
2023/06/10 20:59:59;;;;;;;6.45;5.82;;;;;;;19.33;62.53;96924.66;10498600;28;20044;-73
2023/06/10 21:05:18;;;;;;;6.60;5.93;;;;;;;19.32;62.37;96917.66;10485759;28;20057;-73
2023/06/10 21:10:38;;;;;;;6.22;5.63;;;;;;;19.33;62.40;96935.47;10484685;28;20063;-73
2023/06/10 21:15:57;;;;;;;6.10;5.60;;;;;;;19.33;62.46;96933.56;10470572;28;20404;-72
2023/06/10 21:21:17;;;;;;;6.18;5.53;;;;;;;19.33;62.42;96935.47;10498104;28;20132;-73
2023/06/10 21:26:38;;;;;;;6.07;5.57;;;;;;;19.33;62.44;96932.78;10470115;28;20170;-72
2023/06/10 21:31:57;;;;;;;6.03;5.53;;;;;;;19.33;62.44;96935.47;10497630;28;20036;-73
2023/06/10 21:37:16;;;;;;;6.25;5.65;;;;;;;19.32;62.54;96934.66;10497527;28;20046;-72
2023/06/10 21:42:36;;;;;;;6.13;5.50;;;;;;;19.32;62.46;96931.94;10497097;28;20048;-72
2023/06/10 21:47:55;;;;;;;6.05;5.45;;;;;;;19.32;62.54;96933.88;10482815;28;20424;-72
2023/06/10 21:53:15;;;;;;;5.57;5.07;;;;;;;19.32;62.43;96931.94;10483105;28;20412;-72
2023/06/10 21:58:35;;;;;;;7.03;5.20;;;;;;;19.33;62.55;96935.47;10496676;28;20047;-72
2023/06/10 22:03:54;;;;;;;6.05;5.25;;;;;;;19.32;62.53;96939.28;10487327;28;20076;-72
2023/06/10 22:09:14;;;;;;;5.90;5.40;;;;;;;19.33;62.56;96943.56;10496601;28;20066;-73
2023/06/10 22:14:34;;;;;;;5.78;5.10;;;;;;;19.32;62.44;96939.28;10495869;28;20044;-72
2023/06/10 22:19:53;;;;;;;5.88;5.28;;;;;;;19.32;62.57;96939.28;10468202;28;20573;-72
2023/06/10 22:25:14;;;;;;;5.65;5.13;;;;;;;19.32;62.47;96941.97;10481934;28;20160;-72
2023/06/10 22:30:34;;;;;;;5.88;5.32;;;;;;;19.32;62.56;96939.28;10482179;28;20040;-72
2023/06/10 22:35:54;;;;;;;5.78;5.28;;;;;;;19.32;62.33;96939.28;10495671;28;20045;-72
2023/06/10 22:41:14;;;;;;;5.80;5.30;;;;;;;19.31;62.54;96935.00;10496055;28;20109;-72
2023/06/10 22:46:34;;;;;;;5.57;5.07;;;;;;;19.31;62.45;96941.19;10495092;28;20432;-72
2023/06/10 22:51:53;;;;;;;5.38;4.88;;;;;;;19.30;62.54;96938.78;10495375;28;20048;-72
2023/06/10 22:57:12;;;;;;;5.38;4.88;;;;;;;19.31;62.48;96932.28;10495297;28;20044;-72
2023/06/10 23:02:32;;;;;;;4.47;4.10;;;;;;;19.32;62.38;96925.75;10489825;28;20063;-72
2023/06/10 23:07:52;;;;;;;5.43;4.93;;;;;;;19.30;62.45;96928.78;10495078;28;20075;-72
2023/06/10 23:13:11;;;;;;;5.38;4.93;;;;;;;19.31;62.44;96926.88;10494891;28;20138;-72
2023/06/10 23:18:31;;;;;;;5.10;4.70;;;;;;;19.31;62.47;96932.28;10466738;28;20047;-72
2023/06/10 23:23:52;;;;;;;4.75;4.35;;;;;;;19.30;62.32;96922.59;10482348;28;20040;-72
2023/06/10 23:29:11;;;;;;;5.30;4.90;;;;;;;19.29;62.48;96931.81;10502811;28;20044;-72
2023/06/10 23:34:31;;;;;;;4.97;4.50;;;;;;;19.31;62.78;96937.69;10502379;28;20409;-72
2023/06/10 23:39:50;;;;;;;5.15;4.55;;;;;;;19.29;62.28;96932.59;10488217;28;20094;-72
2023/06/10 23:45:10;;;;;;;4.65;4.25;;;;;;;19.30;62.32;96941.50;10487482;28;20044;-72
2023/06/10 23:50:30;;;;;;;4.95;4.55;;;;;;;19.30;62.45;96942.28;10501826;28;20060;-72
2023/06/10 23:55:50;;;;;;;5.35;4.85;;;;;;;19.29;62.34;96935.31;10501705;28;20049;-72
